sensor_id;sensor_type;location;lat;lon;timestamp;pressure;altitude;pressure_sealevel;temperature
4421;BMP180;11824;51.178;13.546;2023-07-31T00:00:25;99978.00;;;16.80
4421;BMP180;11824;51.178;13.546;2023-07-31T00:02:53;99979.00;;;16.70
4421;BMP180;11824;51.178;13.546;2023-07-31T00:05:23;99973.00;;;16.70
4421;BMP180;11824;51.178;13.546;2023-07-31T00:07:50;99970.00;;;16.60
4421;BMP180;11824;51.178;13.546;2023-07-31T00:10:18;99968.00;;;16.60
4421;BMP180;11824;51.178;13.546;2023-07-31T00:12:45;99964.00;;;16.50
4421;BMP180;11824;51.178;13.546;2023-07-31T00:15:14;99968.00;;;16.50
4421;BMP180;11824;51.178;13.546;2023-07-31T00:17:42;99977.00;;;16.40
4421;BMP180;11824;51.178;13.546;2023-07-31T00:20:10;99971.00;;;16.40
4421;BMP180;11824;51.178;13.546;2023-07-31T00:22:37;99975.00;;;16.40
4421;BMP180;11824;51.178;13.546;2023-07-31T00:25:05;99970.00;;;16.30
4421;BMP180;11824;51.178;13.546;2023-07-31T00:27:33;99968.00;;;16.30
4421;BMP180;11824;51.178;13.546;2023-07-31T00:30:00;99975.00;;;16.20
4421;BMP180;11824;51.178;13.546;2023-07-31T00:32:28;99962.00;;;16.20
4421;BMP180;11824;51.178;13.546;2023-07-31T00:34:56;99959.00;;;16.20
4421;BMP180;11824;51.178;13.546;2023-07-31T00:37:23;99960.00;;;16.20
4421;BMP180;11824;51.178;13.546;2023-07-31T00:39:51;99957.00;;;16.10
4421;BMP180;11824;51.178;13.546;2023-07-31T00:42:18;99959.00;;;16.10
4421;BMP180;11824;51.178;13.546;2023-07-31T00:44:45;99952.00;;;16.10
4421;BMP180;11824;51.178;13.546;2023-07-31T00:47:13;99950.00;;;16.10
4421;BMP180;11824;51.178;13.546;2023-07-31T00:49:41;99946.00;;;16.10
4421;BMP180;11824;51.178;13.546;2023-07-31T00:52:10;99946.00;;;16.10
4421;BMP180;11824;51.178;13.546;2023-07-31T00:54:37;99940.00;;;16.10
4421;BMP180;11824;51.178;13.546;2023-07-31T00:57:05;99944.00;;;16.10
4421;BMP180;11824;51.178;13.546;2023-07-31T00:59:35;99949.00;;;16.10
4421;BMP180;11824;51.178;13.546;2023-07-31T01:02:03;99940.00;;;16.00
4421;BMP180;11824;51.178;13.546;2023-07-31T01:04:31;99942.00;;;16.00
4421;BMP180;11824;51.178;13.546;2023-07-31T01:07:04;99939.00;;;16.00
4421;BMP180;11824;51.178;13.546;2023-07-31T01:09:40;99931.00;;;16.00
4421;BMP180;11824;51.178;13.546;2023-07-31T01:12:14;99939.00;;;16.00
4421;BMP180;11824;51.178;13.546;2023-07-31T01:14:51;99932.00;;;15.90
4421;BMP180;11824;51.178;13.546;2023-07-31T01:17:19;99929.00;;;15.90
4421;BMP180;11824;51.178;13.546;2023-07-31T01:19:47;99929.00;;;15.90
4421;BMP180;11824;51.178;13.546;2023-07-31T01:22:36;99929.00;;;15.80
4421;BMP180;11824;51.178;13.546;2023-07-31T01:25:16;99920.00;;;15.80
4421;BMP180;11824;51.178;13.546;2023-07-31T01:27:56;99926.00;;;15.90
4421;BMP180;11824;51.178;13.546;2023-07-31T01:30:30;99925.00;;;15.90
4421;BMP180;11824;51.178;13.546;2023-07-31T01:33:01;99930.00;;;15.90
4421;BMP180;11824;51.178;13.546;2023-07-31T01:35:33;99927.00;;;16.00
4421;BMP180;11824;51.178;13.546;2023-07-31T01:38:01;99916.00;;;16.00
4421;BMP180;11824;51.178;13.546;2023-07-31T01:40:28;99916.00;;;16.10
4421;BMP180;11824;51.178;13.546;2023-07-31T01:42:56;99916.00;;;16.10
4421;BMP180;11824;51.178;13.546;2023-07-31T01:45:24;99917.00;;;16.20
4421;BMP180;11824;51.178;13.546;2023-07-31T01:47:51;99916.00;;;16.20
4421;BMP180;11824;51.178;13.546;2023-07-31T01:50:18;99914.00;;;16.30
4421;BMP180;11824;51.178;13.546;2023-07-31T01:52:46;99918.00;;;16.30
4421;BMP180;11824;51.178;13.546;2023-07-31T01:55:13;99905.00;;;16.40
4421;BMP180;11824;51.178;13.546;2023-07-31T01:57:41;99908.00;;;16.50
4421;BMP180;11824;51.178;13.546;2023-07-31T02:00:10;99909.00;;;16.50
4421;BMP180;11824;51.178;13.546;2023-07-31T02:02:37;99899.00;;;16.60
4421;BMP180;11824;51.178;13.546;2023-07-31T02:05:06;99901.00;;;16.60
4421;BMP180;11824;51.178;13.546;2023-07-31T02:07:33;99903.00;;;16.70
4421;BMP180;11824;51.178;13.546;2023-07-31T02:10:00;99897.00;;;16.80
4421;BMP180;11824;51.178;13.546;2023-07-31T02:12:28;99904.00;;;16.80
4421;BMP180;11824;51.178;13.546;2023-07-31T02:14:57;99899.00;;;16.90
4421;BMP180;11824;51.178;13.546;2023-07-31T02:17:25;99898.00;;;17.00
4421;BMP180;11824;51.178;13.546;2023-07-31T02:19:53;99892.00;;;17.00
4421;BMP180;11824;51.178;13.546;2023-07-31T02:22:20;99895.00;;;17.10
4421;BMP180;11824;51.178;13.546;2023-07-31T02:24:48;99893.00;;;17.10
4421;BMP180;11824;51.178;13.546;2023-07-31T02:27:15;99888.00;;;17.10
4421;BMP180;11824;51.178;13.546;2023-07-31T02:29:43;99888.00;;;17.20
4421;BMP180;11824;51.178;13.546;2023-07-31T02:32:11;99890.00;;;17.20
4421;BMP180;11824;51.178;13.546;2023-07-31T02:34:39;99891.00;;;17.20
4421;BMP180;11824;51.178;13.546;2023-07-31T02:37:06;99891.00;;;17.20
4421;BMP180;11824;51.178;13.546;2023-07-31T02:39:34;99891.00;;;17.20
4421;BMP180;11824;51.178;13.546;2023-07-31T02:42:01;99889.00;;;17.20
4421;BMP180;11824;51.178;13.546;2023-07-31T02:44:29;99896.00;;;17.20
4421;BMP180;11824;51.178;13.546;2023-07-31T02:46:56;99892.00;;;17.10
4421;BMP180;11824;51.178;13.546;2023-07-31T02:49:24;99886.00;;;17.10
4421;BMP180;11824;51.178;13.546;2023-07-31T02:51:52;99886.00;;;17.10
4421;BMP180;11824;51.178;13.546;2023-07-31T02:54:19;99889.00;;;17.10
4421;BMP180;11824;51.178;13.546;2023-07-31T02:56:48;99884.00;;;17.20
4421;BMP180;11824;51.178;13.546;2023-07-31T02:59:16;99886.00;;;17.20
4421;BMP180;11824;51.178;13.546;2023-07-31T03:01:43;99890.00;;;17.20
4421;BMP180;11824;51.178;13.546;2023-07-31T03:04:11;99886.00;;;17.20
4421;BMP180;11824;51.178;13.546;2023-07-31T03:06:38;99881.00;;;17.30
4421;BMP180;11824;51.178;13.546;2023-07-31T03:09:07;99896.00;;;17.30
4421;BMP180;11824;51.178;13.546;2023-07-31T03:11:34;99897.00;;;17.40
4421;BMP180;11824;51.178;13.546;2023-07-31T03:14:01;99891.00;;;17.40
4421;BMP180;11824;51.178;13.546;2023-07-31T03:16:28;99891.00;;;17.40
4421;BMP180;11824;51.178;13.546;2023-07-31T03:18:56;99894.00;;;17.50
4421;BMP180;11824;51.178;13.546;2023-07-31T03:21:24;99893.00;;;17.50
4421;BMP180;11824;51.178;13.546;2023-07-31T03:23:51;99902.00;;;17.50
4421;BMP180;11824;51.178;13.546;2023-07-31T03:26:19;99909.00;;;17.60
4421;BMP180;11824;51.178;13.546;2023-07-31T03:28:46;99907.00;;;17.60
4421;BMP180;11824;51.178;13.546;2023-07-31T03:31:14;99903.00;;;17.60
4421;BMP180;11824;51.178;13.546;2023-07-31T03:33:41;99899.00;;;17.60
4421;BMP180;11824;51.178;13.546;2023-07-31T03:36:08;99894.00;;;17.60
4421;BMP180;11824;51.178;13.546;2023-07-31T03:38:36;99893.00;;;17.60
4421;BMP180;11824;51.178;13.546;2023-07-31T03:41:03;99893.00;;;17.60
4421;BMP180;11824;51.178;13.546;2023-07-31T03:43:33;99892.00;;;17.60
4421;BMP180;11824;51.178;13.546;2023-07-31T03:46:01;99899.00;;;17.60
4421;BMP180;11824;51.178;13.546;2023-07-31T03:48:29;99908.00;;;17.50
4421;BMP180;11824;51.178;13.546;2023-07-31T03:50:56;99891.00;;;17.50
4421;BMP180;11824;51.178;13.546;2023-07-31T03:53:24;99903.00;;;17.50
4421;BMP180;11824;51.178;13.546;2023-07-31T03:55:51;99903.00;;;17.50
4421;BMP180;11824;51.178;13.546;2023-07-31T03:58:18;99905.00;;;17.50
4421;BMP180;11824;51.178;13.546;2023-07-31T04:00:47;99907.00;;;17.50
4421;BMP180;11824;51.178;13.546;2023-07-31T04:03:15;99896.00;;;17.50
4421;BMP180;11824;51.178;13.546;2023-07-31T04:05:42;99896.00;;;17.50
4421;BMP180;11824;51.178;13.546;2023-07-31T04:08:10;99890.00;;;17.50
4421;BMP180;11824;51.178;13.546;2023-07-31T04:10:37;99883.00;;;17.50
4421;BMP180;11824;51.178;13.546;2023-07-31T04:13:04;99883.00;;;17.40
4421;BMP180;11824;51.178;13.546;2023-07-31T04:15:31;99888.00;;;17.40
4421;BMP180;11824;51.178;13.546;2023-07-31T04:18:00;99886.00;;;17.40
4421;BMP180;11824;51.178;13.546;2023-07-31T04:20:27;99883.00;;;17.40
4421;BMP180;11824;51.178;13.546;2023-07-31T04:22:54;99884.00;;;17.40
4421;BMP180;11824;51.178;13.546;2023-07-31T04:25:22;99871.00;;;17.30
4421;BMP180;11824;51.178;13.546;2023-07-31T04:27:49;99866.00;;;17.30
4421;BMP180;11824;51.178;13.546;2023-07-31T04:30:16;99866.00;;;17.40
4421;BMP180;11824;51.178;13.546;2023-07-31T04:32:44;99857.00;;;17.40
4421;BMP180;11824;51.178;13.546;2023-07-31T04:35:12;99851.00;;;17.40
4421;BMP180;11824;51.178;13.546;2023-07-31T04:37:39;99860.00;;;17.40
4421;BMP180;11824;51.178;13.546;2023-07-31T04:40:07;99862.00;;;17.40
4421;BMP180;11824;51.178;13.546;2023-07-31T04:42:35;99852.00;;;17.40
4421;BMP180;11824;51.178;13.546;2023-07-31T04:45:03;99853.00;;;17.40
4421;BMP180;11824;51.178;13.546;2023-07-31T04:47:30;99850.00;;;17.50
4421;BMP180;11824;51.178;13.546;2023-07-31T04:49:57;99853.00;;;17.50
4421;BMP180;11824;51.178;13.546;2023-07-31T04:52:25;99848.00;;;17.50
4421;BMP180;11824;51.178;13.546;2023-07-31T04:54:53;99847.00;;;17.50
4421;BMP180;11824;51.178;13.546;2023-07-31T04:57:20;99836.00;;;17.50
4421;BMP180;11824;51.178;13.546;2023-07-31T04:59:47;99841.00;;;17.50
4421;BMP180;11824;51.178;13.546;2023-07-31T05:02:17;99847.00;;;17.50
4421;BMP180;11824;51.178;13.546;2023-07-31T05:04:45;99836.00;;;17.50
4421;BMP180;11824;51.178;13.546;2023-07-31T05:07:12;99840.00;;;17.50
4421;BMP180;11824;51.178;13.546;2023-07-31T05:09:40;99839.00;;;17.50
4421;BMP180;11824;51.178;13.546;2023-07-31T05:12:08;99829.00;;;17.50
4421;BMP180;11824;51.178;13.546;2023-07-31T05:14:35;99833.00;;;17.50
4421;BMP180;11824;51.178;13.546;2023-07-31T05:17:03;99836.00;;;17.60
4421;BMP180;11824;51.178;13.546;2023-07-31T05:19:30;99828.00;;;17.60
4421;BMP180;11824;51.178;13.546;2023-07-31T05:21:58;99832.00;;;17.60
4421;BMP180;11824;51.178;13.546;2023-07-31T05:24:25;99831.00;;;17.60
4421;BMP180;11824;51.178;13.546;2023-07-31T05:26:53;99833.00;;;17.60
4421;BMP180;11824;51.178;13.546;2023-07-31T05:29:20;99825.00;;;17.60
4421;BMP180;11824;51.178;13.546;2023-07-31T05:31:48;99825.00;;;17.70
4421;BMP180;11824;51.178;13.546;2023-07-31T05:34:15;99826.00;;;17.70
4421;BMP180;11824;51.178;13.546;2023-07-31T05:36:42;99823.00;;;17.80
4421;BMP180;11824;51.178;13.546;2023-07-31T05:39:10;99821.00;;;17.80
4421;BMP180;11824;51.178;13.546;2023-07-31T05:41:37;99826.00;;;17.90
4421;BMP180;11824;51.178;13.546;2023-07-31T05:44:05;99822.00;;;17.90
4421;BMP180;11824;51.178;13.546;2023-07-31T05:46:33;99821.00;;;18.00
4421;BMP180;11824;51.178;13.546;2023-07-31T05:49:00;99828.00;;;18.00
4421;BMP180;11824;51.178;13.546;2023-07-31T05:51:28;99805.00;;;18.10
4421;BMP180;11824;51.178;13.546;2023-07-31T05:53:56;99811.00;;;18.10
4421;BMP180;11824;51.178;13.546;2023-07-31T05:56:23;99821.00;;;18.10
4421;BMP180;11824;51.178;13.546;2023-07-31T05:58:50;99818.00;;;18.10
4421;BMP180;11824;51.178;13.546;2023-07-31T06:01:18;99810.00;;;18.10
4421;BMP180;11824;51.178;13.546;2023-07-31T06:03:48;99820.00;;;18.20
4421;BMP180;11824;51.178;13.546;2023-07-31T06:06:15;99817.00;;;18.20
4421;BMP180;11824;51.178;13.546;2023-07-31T06:08:42;99817.00;;;18.20
4421;BMP180;11824;51.178;13.546;2023-07-31T06:11:10;99821.00;;;18.20
4421;BMP180;11824;51.178;13.546;2023-07-31T06:13:37;99822.00;;;18.20
4421;BMP180;11824;51.178;13.546;2023-07-31T06:16:05;99820.00;;;18.30
4421;BMP180;11824;51.178;13.546;2023-07-31T06:18:33;99821.00;;;18.30
4421;BMP180;11824;51.178;13.546;2023-07-31T06:21:01;99826.00;;;18.30
4421;BMP180;11824;51.178;13.546;2023-07-31T06:23:28;99824.00;;;18.30
4421;BMP180;11824;51.178;13.546;2023-07-31T06:25:55;99826.00;;;18.40
4421;BMP180;11824;51.178;13.546;2023-07-31T06:28:27;99828.00;;;18.40
4421;BMP180;11824;51.178;13.546;2023-07-31T06:30:56;99838.00;;;18.50
4421;BMP180;11824;51.178;13.546;2023-07-31T06:33:27;99825.00;;;18.50
4421;BMP180;11824;51.178;13.546;2023-07-31T06:35:57;99825.00;;;18.50
4421;BMP180;11824;51.178;13.546;2023-07-31T06:38:26;99829.00;;;18.50
4421;BMP180;11824;51.178;13.546;2023-07-31T06:40:54;99825.00;;;18.50
4421;BMP180;11824;51.178;13.546;2023-07-31T06:43:21;99827.00;;;18.60
4421;BMP180;11824;51.178;13.546;2023-07-31T06:45:49;99808.00;;;18.60
4421;BMP180;11824;51.178;13.546;2023-07-31T06:48:18;99811.00;;;18.60
4421;BMP180;11824;51.178;13.546;2023-07-31T06:50:45;99811.00;;;18.70
4421;BMP180;11824;51.178;13.546;2023-07-31T06:53:13;99805.00;;;18.70
4421;BMP180;11824;51.178;13.546;2023-07-31T06:55:40;99813.00;;;18.70
4421;BMP180;11824;51.178;13.546;2023-07-31T06:58:08;99802.00;;;18.80
4421;BMP180;11824;51.178;13.546;2023-07-31T07:00:35;99827.00;;;18.80
4421;BMP180;11824;51.178;13.546;2023-07-31T07:03:02;99826.00;;;18.90
4421;BMP180;11824;51.178;13.546;2023-07-31T07:05:30;99822.00;;;18.90
4421;BMP180;11824;51.178;13.546;2023-07-31T07:07:57;99818.00;;;19.00
4421;BMP180;11824;51.178;13.546;2023-07-31T07:10:25;99824.00;;;19.10
4421;BMP180;11824;51.178;13.546;2023-07-31T07:12:53;99819.00;;;19.20
4421;BMP180;11824;51.178;13.546;2023-07-31T07:15:22;99807.00;;;19.40
4421;BMP180;11824;51.178;13.546;2023-07-31T07:17:49;99810.00;;;19.50
4421;BMP180;11824;51.178;13.546;2023-07-31T07:20:16;99813.00;;;19.70
4421;BMP180;11824;51.178;13.546;2023-07-31T07:22:46;99809.00;;;19.80
4421;BMP180;11824;51.178;13.546;2023-07-31T07:25:13;99820.00;;;20.00
4421;BMP180;11824;51.178;13.546;2023-07-31T07:27:41;99812.00;;;20.10
4421;BMP180;11824;51.178;13.546;2023-07-31T07:30:09;99812.00;;;20.30
4421;BMP180;11824;51.178;13.546;2023-07-31T07:32:36;99832.00;;;20.50
4421;BMP180;11824;51.178;13.546;2023-07-31T07:35:05;99822.00;;;20.60
4421;BMP180;11824;51.178;13.546;2023-07-31T07:37:32;99825.00;;;20.80
4421;BMP180;11824;51.178;13.546;2023-07-31T07:40:00;99826.00;;;20.90
4421;BMP180;11824;51.178;13.546;2023-07-31T07:42:27;99822.00;;;21.00
4421;BMP180;11824;51.178;13.546;2023-07-31T07:44:55;99836.00;;;21.00
4421;BMP180;11824;51.178;13.546;2023-07-31T07:47:26;99828.00;;;21.10
4421;BMP180;11824;51.178;13.546;2023-07-31T07:49:55;99834.00;;;21.10
4421;BMP180;11824;51.178;13.546;2023-07-31T07:52:23;99833.00;;;21.10
4421;BMP180;11824;51.178;13.546;2023-07-31T07:54:50;99830.00;;;21.10
4421;BMP180;11824;51.178;13.546;2023-07-31T07:57:18;99833.00;;;21.10
4421;BMP180;11824;51.178;13.546;2023-07-31T07:59:45;99831.00;;;21.10
4421;BMP180;11824;51.178;13.546;2023-07-31T08:02:13;99844.00;;;21.20
4421;BMP180;11824;51.178;13.546;2023-07-31T08:04:41;99835.00;;;21.20
4421;BMP180;11824;51.178;13.546;2023-07-31T08:07:10;99840.00;;;21.20
4421;BMP180;11824;51.178;13.546;2023-07-31T08:09:37;99830.00;;;21.30
4421;BMP180;11824;51.178;13.546;2023-07-31T08:12:05;99832.00;;;21.40
4421;BMP180;11824;51.178;13.546;2023-07-31T08:14:33;99850.00;;;21.40
4421;BMP180;11824;51.178;13.546;2023-07-31T08:17:01;99844.00;;;21.50
4421;BMP180;11824;51.178;13.546;2023-07-31T08:19:29;99851.00;;;21.50
4421;BMP180;11824;51.178;13.546;2023-07-31T08:21:57;99834.00;;;21.50
4421;BMP180;11824;51.178;13.546;2023-07-31T08:24:25;99832.00;;;21.50
4421;BMP180;11824;51.178;13.546;2023-07-31T08:26:52;99839.00;;;21.40
4421;BMP180;11824;51.178;13.546;2023-07-31T08:29:19;99840.00;;;21.40
4421;BMP180;11824;51.178;13.546;2023-07-31T08:31:47;99836.00;;;21.40
4421;BMP180;11824;51.178;13.546;2023-07-31T08:34:14;99844.00;;;21.40
4421;BMP180;11824;51.178;13.546;2023-07-31T08:36:42;99838.00;;;21.40
4421;BMP180;11824;51.178;13.546;2023-07-31T08:39:10;99835.00;;;21.40
4421;BMP180;11824;51.178;13.546;2023-07-31T08:41:38;99841.00;;;21.40
4421;BMP180;11824;51.178;13.546;2023-07-31T08:44:06;99844.00;;;21.50
4421;BMP180;11824;51.178;13.546;2023-07-31T08:46:34;99832.00;;;21.50
4421;BMP180;11824;51.178;13.546;2023-07-31T08:49:04;99838.00;;;21.50
4421;BMP180;11824;51.178;13.546;2023-07-31T08:51:33;99842.00;;;21.60
4421;BMP180;11824;51.178;13.546;2023-07-31T08:54:01;99841.00;;;21.60
4421;BMP180;11824;51.178;13.546;2023-07-31T08:56:32;99836.00;;;21.50
4421;BMP180;11824;51.178;13.546;2023-07-31T08:59:00;99838.00;;;21.50
4421;BMP180;11824;51.178;13.546;2023-07-31T09:01:30;99826.00;;;21.50
4421;BMP180;11824;51.178;13.546;2023-07-31T09:03:59;99826.00;;;21.50
4421;BMP180;11824;51.178;13.546;2023-07-31T09:06:29;99830.00;;;21.40
4421;BMP180;11824;51.178;13.546;2023-07-31T09:08:57;99827.00;;;21.50
4421;BMP180;11824;51.178;13.546;2023-07-31T09:11:26;99826.00;;;21.50
4421;BMP180;11824;51.178;13.546;2023-07-31T09:13:54;99824.00;;;21.50
4421;BMP180;11824;51.178;13.546;2023-07-31T09:16:28;99822.00;;;21.50
4421;BMP180;11824;51.178;13.546;2023-07-31T09:18:57;99812.00;;;21.50
4421;BMP180;11824;51.178;13.546;2023-07-31T09:21:25;99810.00;;;21.50
4421;BMP180;11824;51.178;13.546;2023-07-31T09:23:54;99817.00;;;21.50
4421;BMP180;11824;51.178;13.546;2023-07-31T09:26:32;99810.00;;;21.50
4421;BMP180;11824;51.178;13.546;2023-07-31T09:29:03;99810.00;;;21.60
4421;BMP180;11824;51.178;13.546;2023-07-31T09:31:39;99809.00;;;21.50
4421;BMP180;11824;51.178;13.546;2023-07-31T09:34:07;99810.00;;;21.50
4421;BMP180;11824;51.178;13.546;2023-07-31T09:36:40;99805.00;;;21.50
4421;BMP180;11824;51.178;13.546;2023-07-31T09:39:10;99804.00;;;21.50
4421;BMP180;11824;51.178;13.546;2023-07-31T09:41:39;99799.00;;;21.50
4421;BMP180;11824;51.178;13.546;2023-07-31T09:44:06;99795.00;;;21.50
4421;BMP180;11824;51.178;13.546;2023-07-31T09:46:35;99802.00;;;21.50
4421;BMP180;11824;51.178;13.546;2023-07-31T09:49:06;99810.00;;;21.50
4421;BMP180;11824;51.178;13.546;2023-07-31T09:51:33;99808.00;;;21.60
4421;BMP180;11824;51.178;13.546;2023-07-31T09:54:09;99808.00;;;21.60
4421;BMP180;11824;51.178;13.546;2023-07-31T09:56:42;99811.00;;;21.70
4421;BMP180;11824;51.178;13.546;2023-07-31T09:59:12;99819.00;;;21.80
4421;BMP180;11824;51.178;13.546;2023-07-31T10:01:40;99810.00;;;21.80
4421;BMP180;11824;51.178;13.546;2023-07-31T10:04:09;99818.00;;;21.80
4421;BMP180;11824;51.178;13.546;2023-07-31T10:06:38;99801.00;;;21.80
4421;BMP180;11824;51.178;13.546;2023-07-31T10:09:07;99802.00;;;21.90
4421;BMP180;11824;51.178;13.546;2023-07-31T10:11:41;99801.00;;;21.90
4421;BMP180;11824;51.178;13.546;2023-07-31T10:14:11;99798.00;;;21.80
4421;BMP180;11824;51.178;13.546;2023-07-31T10:16:39;99793.00;;;21.80
4421;BMP180;11824;51.178;13.546;2023-07-31T10:19:09;99791.00;;;21.80
4421;BMP180;11824;51.178;13.546;2023-07-31T10:21:38;99787.00;;;21.90
4421;BMP180;11824;51.178;13.546;2023-07-31T10:24:05;99775.00;;;21.90
4421;BMP180;11824;51.178;13.546;2023-07-31T10:26:33;99786.00;;;22.00
4421;BMP180;11824;51.178;13.546;2023-07-31T10:29:02;99780.00;;;22.10
4421;BMP180;11824;51.178;13.546;2023-07-31T10:31:29;99774.00;;;22.20
4421;BMP180;11824;51.178;13.546;2023-07-31T10:33:57;99774.00;;;22.30
4421;BMP180;11824;51.178;13.546;2023-07-31T10:36:26;99776.00;;;22.40
4421;BMP180;11824;51.178;13.546;2023-07-31T10:38:56;99780.00;;;22.50
4421;BMP180;11824;51.178;13.546;2023-07-31T10:41:29;99780.00;;;22.60
4421;BMP180;11824;51.178;13.546;2023-07-31T10:43:59;99777.00;;;22.70
4421;BMP180;11824;51.178;13.546;2023-07-31T10:46:28;99790.00;;;22.80
4421;BMP180;11824;51.178;13.546;2023-07-31T10:48:58;99775.00;;;22.90
4421;BMP180;11824;51.178;13.546;2023-07-31T10:51:33;99773.00;;;22.90
4421;BMP180;11824;51.178;13.546;2023-07-31T10:54:11;99778.00;;;22.90
4421;BMP180;11824;51.178;13.546;2023-07-31T10:56:39;99768.00;;;22.90
4421;BMP180;11824;51.178;13.546;2023-07-31T10:59:07;99762.00;;;23.00
4421;BMP180;11824;51.178;13.546;2023-07-31T11:01:51;99752.00;;;22.90
4421;BMP180;11824;51.178;13.546;2023-07-31T11:04:23;99751.00;;;22.90
4421;BMP180;11824;51.178;13.546;2023-07-31T11:06:58;99743.00;;;22.90
4421;BMP180;11824;51.178;13.546;2023-07-31T11:09:28;99751.00;;;22.80
4421;BMP180;11824;51.178;13.546;2023-07-31T11:11:57;99766.00;;;22.80
4421;BMP180;11824;51.178;13.546;2023-07-31T11:14:25;99755.00;;;22.80
4421;BMP180;11824;51.178;13.546;2023-07-31T11:16:53;99743.00;;;22.70
4421;BMP180;11824;51.178;13.546;2023-07-31T11:19:24;99760.00;;;22.70
4421;BMP180;11824;51.178;13.546;2023-07-31T11:21:52;99756.00;;;22.70
4421;BMP180;11824;51.178;13.546;2023-07-31T11:24:20;99756.00;;;22.90
4421;BMP180;11824;51.178;13.546;2023-07-31T11:26:51;99755.00;;;23.00
4421;BMP180;11824;51.178;13.546;2023-07-31T11:29:19;99748.00;;;23.10
4421;BMP180;11824;51.178;13.546;2023-07-31T11:31:47;99744.00;;;23.20
4421;BMP180;11824;51.178;13.546;2023-07-31T11:34:16;99746.00;;;23.30
4421;BMP180;11824;51.178;13.546;2023-07-31T11:36:53;99731.00;;;23.40
4421;BMP180;11824;51.178;13.546;2023-07-31T11:39:21;99725.00;;;23.50
4421;BMP180;11824;51.178;13.546;2023-07-31T11:41:49;99733.00;;;23.70
4421;BMP180;11824;51.178;13.546;2023-07-31T11:44:16;99723.00;;;23.80
4421;BMP180;11824;51.178;13.546;2023-07-31T11:46:57;99720.00;;;24.00
4421;BMP180;11824;51.178;13.546;2023-07-31T11:49:26;99724.00;;;24.00
4421;BMP180;11824;51.178;13.546;2023-07-31T11:51:53;99722.00;;;24.20
4421;BMP180;11824;51.178;13.546;2023-07-31T11:54:21;99703.00;;;24.30
4421;BMP180;11824;51.178;13.546;2023-07-31T11:56:49;99706.00;;;24.40
4421;BMP180;11824;51.178;13.546;2023-07-31T11:59:17;99704.00;;;24.50
4421;BMP180;11824;51.178;13.546;2023-07-31T12:01:44;99696.00;;;24.70
4421;BMP180;11824;51.178;13.546;2023-07-31T12:04:12;99699.00;;;24.90
4421;BMP180;11824;51.178;13.546;2023-07-31T12:06:40;99690.00;;;25.00
4421;BMP180;11824;51.178;13.546;2023-07-31T12:09:09;99689.00;;;25.20
4421;BMP180;11824;51.178;13.546;2023-07-31T12:11:43;99684.00;;;25.40
4421;BMP180;11824;51.178;13.546;2023-07-31T12:14:20;99688.00;;;25.50
4421;BMP180;11824;51.178;13.546;2023-07-31T12:16:48;99684.00;;;25.60
4421;BMP180;11824;51.178;13.546;2023-07-31T12:19:20;99681.00;;;25.60
4421;BMP180;11824;51.178;13.546;2023-07-31T12:21:48;99665.00;;;25.70
4421;BMP180;11824;51.178;13.546;2023-07-31T12:24:18;99673.00;;;25.70
4421;BMP180;11824;51.178;13.546;2023-07-31T12:26:46;99665.00;;;25.80
4421;BMP180;11824;51.178;13.546;2023-07-31T12:29:14;99667.00;;;25.90
4421;BMP180;11824;51.178;13.546;2023-07-31T12:31:42;99669.00;;;26.00
4421;BMP180;11824;51.178;13.546;2023-07-31T12:34:16;99663.00;;;26.00
4421;BMP180;11824;51.178;13.546;2023-07-31T12:36:44;99657.00;;;26.10
4421;BMP180;11824;51.178;13.546;2023-07-31T12:39:13;99666.00;;;26.10
4421;BMP180;11824;51.178;13.546;2023-07-31T12:41:40;99648.00;;;26.10
4421;BMP180;11824;51.178;13.546;2023-07-31T12:44:07;99659.00;;;26.20
4421;BMP180;11824;51.178;13.546;2023-07-31T12:46:36;99649.00;;;26.20
4421;BMP180;11824;51.178;13.546;2023-07-31T12:49:04;99639.00;;;26.20
4421;BMP180;11824;51.178;13.546;2023-07-31T12:51:32;99630.00;;;26.30
4421;BMP180;11824;51.178;13.546;2023-07-31T12:53:59;99634.00;;;26.30
4421;BMP180;11824;51.178;13.546;2023-07-31T12:56:27;99626.00;;;26.30
4421;BMP180;11824;51.178;13.546;2023-07-31T12:58:54;99624.00;;;26.30
4421;BMP180;11824;51.178;13.546;2023-07-31T13:01:22;99622.00;;;26.20
4421;BMP180;11824;51.178;13.546;2023-07-31T13:03:49;99629.00;;;26.10
4421;BMP180;11824;51.178;13.546;2023-07-31T13:06:17;99625.00;;;26.10
4421;BMP180;11824;51.178;13.546;2023-07-31T13:08:44;99626.00;;;26.00
4421;BMP180;11824;51.178;13.546;2023-07-31T13:11:12;99623.00;;;26.00
4421;BMP180;11824;51.178;13.546;2023-07-31T13:13:40;99628.00;;;25.90
4421;BMP180;11824;51.178;13.546;2023-07-31T13:16:07;99620.00;;;25.90
4421;BMP180;11824;51.178;13.546;2023-07-31T13:18:34;99621.00;;;25.80
4421;BMP180;11824;51.178;13.546;2023-07-31T13:21:02;99627.00;;;25.70
4421;BMP180;11824;51.178;13.546;2023-07-31T13:23:29;99614.00;;;25.60
4421;BMP180;11824;51.178;13.546;2023-07-31T13:25:56;99617.00;;;25.60
4421;BMP180;11824;51.178;13.546;2023-07-31T13:28:24;99611.00;;;25.50
4421;BMP180;11824;51.178;13.546;2023-07-31T13:30:52;99608.00;;;25.50
4421;BMP180;11824;51.178;13.546;2023-07-31T13:33:19;99601.00;;;25.50
4421;BMP180;11824;51.178;13.546;2023-07-31T13:36:03;99601.00;;;25.60
4421;BMP180;11824;51.178;13.546;2023-07-31T13:38:30;99585.00;;;25.80
4421;BMP180;11824;51.178;13.546;2023-07-31T13:40:58;99586.00;;;25.90
4421;BMP180;11824;51.178;13.546;2023-07-31T13:43:25;99585.00;;;26.00
4421;BMP180;11824;51.178;13.546;2023-07-31T13:45:53;99584.00;;;26.00
4421;BMP180;11824;51.178;13.546;2023-07-31T13:48:20;99581.00;;;26.10
4421;BMP180;11824;51.178;13.546;2023-07-31T13:50:48;99583.00;;;26.00
4421;BMP180;11824;51.178;13.546;2023-07-31T13:53:15;99574.00;;;26.00
4421;BMP180;11824;51.178;13.546;2023-07-31T13:55:43;99569.00;;;25.90
4421;BMP180;11824;51.178;13.546;2023-07-31T13:58:12;99576.00;;;25.90
4421;BMP180;11824;51.178;13.546;2023-07-31T14:00:39;99575.00;;;25.80
4421;BMP180;11824;51.178;13.546;2023-07-31T14:03:07;99567.00;;;25.80
4421;BMP180;11824;51.178;13.546;2023-07-31T14:05:35;99572.00;;;25.80
4421;BMP180;11824;51.178;13.546;2023-07-31T14:08:02;99565.00;;;25.90
4421;BMP180;11824;51.178;13.546;2023-07-31T14:10:30;99550.00;;;25.90
4421;BMP180;11824;51.178;13.546;2023-07-31T14:12:57;99567.00;;;25.90
4421;BMP180;11824;51.178;13.546;2023-07-31T14:15:25;99565.00;;;25.90